createdAt,value
2019-04-04T00:01:47.723Z,5.40
2019-04-04T00:04:17.115Z,5.50
2019-04-04T00:06:47.312Z,5.50
2019-04-04T00:09:17.440Z,5.50
2019-04-04T00:11:47.580Z,5.50
2019-04-04T00:14:17.736Z,5.50
2019-04-04T00:16:48.844Z,5.40
2019-04-04T00:19:19.516Z,5.50
2019-04-04T00:21:49.656Z,5.60
2019-04-04T00:24:19.827Z,5.60
2019-04-04T00:26:49.963Z,5.50
2019-04-04T00:29:21.183Z,5.40
2019-04-04T00:31:51.322Z,5.30
2019-04-04T00:34:21.479Z,5.30
2019-04-04T00:36:51.602Z,5.20
2019-04-04T00:39:24.481Z,5.20
2019-04-04T00:41:54.560Z,5.20
2019-04-04T00:44:24.612Z,5.30
2019-04-04T00:46:54.648Z,5.30
2019-04-04T00:49:24.683Z,5.20
2019-04-04T00:51:54.708Z,5.20
2019-04-04T00:54:24.956Z,5.10
2019-04-04T00:56:54.975Z,5.10
2019-04-04T00:59:25.196Z,5.20
2019-04-04T01:01:57.005Z,5.10
2019-04-04T01:04:26.981Z,5.10
2019-04-04T01:06:57.000Z,5.10
2019-04-04T01:09:27.166Z,5.20
2019-04-04T01:11:57.219Z,5.20
2019-04-04T01:14:29.177Z,5.10
2019-04-04T01:16:59.132Z,5.10
2019-04-04T01:19:30.451Z,5.10
2019-04-04T01:22:00.570Z,4.90
2019-04-04T01:24:30.738Z,4.90
2019-04-04T01:27:00.894Z,4.90
2019-04-04T01:29:31.203Z,4.80
2019-04-04T01:32:01.387Z,4.80
2019-04-04T01:34:31.648Z,4.80
2019-04-04T01:37:01.664Z,4.90
2019-04-04T01:39:32.014Z,5.00
2019-04-04T01:42:02.073Z,5.10
2019-04-04T01:44:32.172Z,5.00
2019-04-04T01:47:02.316Z,5.10
2019-04-04T01:49:32.537Z,5.00
2019-04-04T01:52:03.683Z,5.00
2019-04-04T01:54:33.835Z,4.90
2019-04-04T01:57:04.000Z,5.00
2019-04-04T01:59:34.155Z,4.90
2019-04-04T02:02:04.287Z,4.90
2019-04-04T02:04:34.431Z,4.80
2019-04-04T02:07:04.576Z,4.70
2019-04-04T02:09:34.765Z,4.60
2019-04-04T02:12:07.670Z,4.50
2019-04-04T02:14:36.879Z,4.50
2019-04-04T02:17:07.028Z,4.50
2019-04-04T02:19:37.399Z,4.50
2019-04-04T02:22:07.551Z,4.40
2019-04-04T02:24:37.756Z,4.40
2019-04-04T02:27:07.910Z,4.40
2019-04-04T02:29:38.122Z,4.40
2019-04-04T02:32:13.223Z,4.30
2019-04-04T02:34:43.439Z,4.20
2019-04-04T02:37:16.090Z,4.10
2019-04-04T02:39:46.437Z,4.00
2019-04-04T02:42:21.103Z,4.00
2019-04-04T02:44:48.443Z,4.00
2019-04-04T02:47:18.615Z,4.00
2019-04-04T02:49:48.870Z,3.90
2019-04-04T02:52:19.009Z,3.80
2019-04-04T02:54:49.251Z,3.80
2019-04-04T02:57:19.418Z,3.70
2019-04-04T02:59:52.989Z,3.70
2019-04-04T03:02:21.763Z,3.70
2019-04-04T03:04:52.036Z,3.70
2019-04-04T03:07:22.193Z,3.70
2019-04-04T03:09:52.344Z,3.80
2019-04-04T03:12:25.706Z,3.80
2019-04-04T03:14:54.327Z,3.90
2019-04-04T03:17:24.466Z,3.90
2019-04-04T03:19:54.613Z,3.90
2019-04-04T03:22:27.539Z,3.80
2019-04-04T03:24:56.607Z,3.80
2019-04-04T03:27:27.143Z,3.80
2019-04-04T03:29:57.583Z,3.80
2019-04-04T03:32:27.741Z,3.80
2019-04-04T03:34:58.003Z,3.90
2019-04-04T03:37:28.152Z,3.90
2019-04-04T03:39:58.381Z,4.00
2019-04-04T03:42:29.492Z,3.90
2019-04-04T03:44:59.664Z,3.90
2019-04-04T03:47:29.813Z,3.90
2019-04-04T03:49:59.999Z,3.90
2019-04-04T03:52:31.116Z,3.90
2019-04-04T03:55:01.475Z,3.80
2019-04-04T03:57:32.652Z,3.80
2019-04-04T04:00:07.380Z,3.80
2019-04-04T04:02:37.832Z,3.80
2019-04-04T04:05:24.683Z,3.80
2019-04-04T04:07:55.867Z,3.80
2019-04-04T04:10:26.063Z,3.80
2019-04-04T04:12:56.219Z,3.80
2019-04-04T04:15:29.295Z,3.80
2019-04-04T04:17:58.241Z,3.80
2019-04-04T04:20:28.439Z,3.90
2019-04-04T04:22:58.789Z,3.90
2019-04-04T04:25:28.981Z,3.80
2019-04-04T04:28:02.760Z,3.80
2019-04-04T04:30:31.170Z,3.80
2019-04-04T04:33:01.331Z,3.90
2019-04-04T04:35:31.495Z,3.90
2019-04-04T04:38:01.658Z,4.00
2019-04-04T04:40:31.804Z,4.00
2019-04-04T04:43:01.976Z,4.00
2019-04-04T04:45:32.132Z,4.10
2019-04-04T04:48:02.378Z,4.10
2019-04-04T04:50:32.519Z,4.10
2019-04-04T04:53:03.067Z,4.10
2019-04-04T04:55:35.598Z,4.20
2019-04-04T04:58:09.831Z,4.30
2019-04-04T05:00:37.599Z,4.30
2019-04-04T05:03:07.847Z,4.20
2019-04-04T05:05:37.995Z,4.20
2019-04-04T05:08:10.101Z,4.10
2019-04-04T05:10:40.002Z,4.10
2019-04-04T05:13:10.171Z,4.10
2019-04-04T05:15:40.329Z,4.10
2019-04-04T05:18:11.918Z,4.10
2019-04-04T05:20:42.308Z,4.10
2019-04-04T05:23:13.374Z,4.10
2019-04-04T05:25:53.440Z,4.30
2019-04-04T05:28:16.230Z,4.30
2019-04-04T05:31:09.094Z,4.30
2019-04-04T05:33:40.202Z,4.30
2019-04-04T05:36:10.358Z,4.30
2019-04-04T05:38:42.758Z,4.30
2019-04-04T05:41:12.447Z,4.30
2019-04-04T05:43:42.581Z,4.30
2019-04-04T05:46:12.768Z,4.30
2019-04-04T05:48:43.439Z,4.30
2019-04-04T05:51:15.249Z,4.40
2019-04-04T05:53:45.467Z,4.40
2019-04-04T05:56:15.879Z,4.40
2019-04-04T05:58:46.075Z,4.50
2019-04-04T06:01:16.708Z,4.60
2019-04-04T06:03:47.798Z,4.70
2019-04-04T06:06:18.348Z,4.80
2019-04-04T06:08:48.568Z,4.90
2019-04-04T06:11:21.781Z,5.00
2019-04-04T06:13:52.975Z,5.10
2019-04-04T06:16:23.194Z,5.10
2019-04-04T06:18:53.357Z,5.10
2019-04-04T06:21:23.507Z,5.20
2019-04-04T06:23:53.913Z,5.20
2019-04-04T06:26:25.643Z,5.30
2019-04-04T06:28:55.815Z,5.40
2019-04-04T06:31:26.484Z,5.40
2019-04-04T06:33:57.808Z,5.40
2019-04-04T06:36:27.987Z,5.40
2019-04-04T06:39:15.439Z,5.40
2019-04-04T06:41:45.683Z,5.40
2019-04-04T06:44:15.829Z,5.50
2019-04-04T06:46:46.019Z,5.50
2019-04-04T06:49:16.193Z,5.60
2019-04-04T06:51:47.204Z,5.70
2019-04-04T06:54:17.410Z,5.80
2019-04-04T06:56:47.608Z,5.80
2019-04-04T06:59:17.781Z,6.00
2019-04-04T07:01:48.055Z,6.00
2019-04-04T07:04:18.185Z,6.10
2019-04-04T07:06:48.379Z,6.20
2019-04-04T07:09:19.268Z,6.40
2019-04-04T07:11:49.423Z,6.50
2019-04-04T07:14:19.668Z,6.50
2019-04-04T07:16:49.875Z,6.60
2019-04-04T07:19:20.175Z,6.70
2019-04-04T07:21:51.343Z,6.80
2019-04-04T07:24:22.078Z,6.90
2019-04-04T07:26:52.214Z,6.90
2019-04-04T07:29:23.045Z,7.00
2019-04-04T07:31:54.203Z,7.00
2019-04-04T07:34:24.368Z,7.00
2019-04-04T07:36:54.508Z,7.00
2019-04-04T07:39:24.652Z,7.00
2019-04-04T07:41:54.820Z,6.90
2019-04-04T07:44:25.031Z,7.00
2019-04-04T07:46:55.180Z,7.00
2019-04-04T07:49:25.376Z,7.00
2019-04-04T07:51:55.607Z,7.00
2019-04-04T07:54:25.846Z,7.00
2019-04-04T07:56:56.333Z,7.00
2019-04-04T07:59:26.916Z,7.10
2019-04-04T08:01:57.159Z,7.30
2019-04-04T08:04:27.329Z,7.30
2019-04-04T08:06:57.493Z,7.50
2019-04-04T08:09:27.662Z,7.60
2019-04-04T08:11:57.816Z,7.60
2019-04-04T08:14:28.969Z,7.70
2019-04-04T08:16:59.139Z,7.70
2019-04-04T08:19:29.387Z,7.70
2019-04-04T08:21:59.537Z,7.90
2019-04-04T08:24:29.758Z,8.00
2019-04-04T08:26:59.935Z,8.00
2019-04-04T08:29:30.100Z,8.20
2019-04-04T08:32:00.251Z,8.40
2019-04-04T08:34:30.919Z,8.50
2019-04-04T08:37:01.047Z,8.60
2019-04-04T08:39:31.207Z,8.60
2019-04-04T08:42:01.344Z,8.70
2019-04-04T08:44:31.536Z,8.70
2019-04-04T08:47:01.704Z,8.70
2019-04-04T08:49:31.851Z,8.60
2019-04-04T08:52:15.735Z,8.70
2019-04-04T08:54:34.846Z,8.80
2019-04-04T08:57:05.115Z,9.00
2019-04-04T08:59:35.305Z,9.10
2019-04-04T09:02:05.455Z,9.10
2019-04-04T09:04:35.630Z,9.20
2019-04-04T09:07:05.816Z,9.30
2019-04-04T09:09:38.406Z,9.30
2019-04-04T09:12:08.609Z,9.40
2019-04-04T09:14:41.143Z,9.70
2019-04-04T09:17:10.600Z,10.30
2019-04-04T09:19:40.774Z,10.30
2019-04-04T09:22:11.065Z,10.30
2019-04-04T09:24:41.285Z,10.60
2019-04-04T09:27:11.441Z,10.80
2019-04-04T09:29:41.608Z,11.00
2019-04-04T09:32:11.759Z,11.00
2019-04-04T09:34:41.940Z,10.80
2019-04-04T09:37:12.122Z,10.90
2019-04-04T09:39:42.303Z,10.70
2019-04-04T09:42:12.459Z,10.80
2019-04-04T09:44:43.597Z,10.80
2019-04-04T09:47:13.748Z,10.70
2019-04-04T09:49:43.914Z,10.40
2019-04-04T09:52:14.076Z,10.40
2019-04-04T09:54:44.238Z,10.20
2019-04-04T09:57:14.383Z,10.10
2019-04-04T09:59:44.543Z,9.90
2019-04-04T10:02:14.717Z,9.80
2019-04-04T10:04:44.852Z,9.70
2019-04-04T10:07:15.023Z,9.70
2019-04-04T10:09:45.190Z,9.90
2019-04-04T10:12:15.397Z,9.80
2019-04-04T10:14:45.563Z,9.90
2019-04-04T10:17:15.723Z,9.90
2019-04-04T10:19:45.888Z,9.90
2019-04-04T10:22:16.028Z,9.80
2019-04-04T10:24:46.191Z,9.90
2019-04-04T10:27:16.319Z,9.90
2019-04-04T10:29:46.482Z,10.20
2019-04-04T10:32:16.692Z,10.40
2019-04-04T10:34:46.851Z,10.50
2019-04-04T10:37:17.030Z,10.70
2019-04-04T10:39:47.436Z,10.50
2019-04-04T10:42:17.596Z,10.70
2019-04-04T10:44:47.760Z,10.80
2019-04-04T10:47:17.955Z,10.80
2019-04-04T10:49:48.114Z,10.70
2019-04-04T10:52:18.288Z,10.70
2019-04-04T10:54:48.442Z,10.60
2019-04-04T10:57:18.611Z,10.30
2019-04-04T10:59:48.788Z,10.20
2019-04-04T11:02:18.974Z,10.30
2019-04-04T11:04:50.091Z,10.30
2019-04-04T11:07:20.271Z,10.90
2019-04-04T11:09:50.499Z,10.60
2019-04-04T11:12:20.699Z,10.60
2019-04-04T11:14:50.868Z,10.30
2019-04-04T11:17:21.091Z,10.20
2019-04-04T11:19:51.304Z,10.20
2019-04-04T11:22:22.420Z,10.20
2019-04-04T11:24:52.581Z,10.10
2019-04-04T11:27:22.797Z,9.70
2019-04-04T11:29:52.966Z,9.60
2019-04-04T11:32:23.120Z,9.50
2019-04-04T11:34:53.745Z,9.40
2019-04-04T11:37:24.131Z,9.20
2019-04-04T11:39:55.212Z,9.20
2019-04-04T11:42:25.535Z,9.20
2019-04-04T11:44:55.740Z,9.20
2019-04-04T11:47:26.278Z,9.20
2019-04-04T11:49:56.523Z,9.10
2019-04-04T11:52:26.689Z,9.00
2019-04-04T11:55:01.059Z,8.90
2019-04-04T11:57:31.227Z,8.70
2019-04-04T12:00:01.384Z,8.70
2019-04-04T12:02:32.790Z,8.60
2019-04-04T12:05:04.435Z,8.40
2019-04-04T12:07:34.612Z,8.30
2019-04-04T12:10:07.836Z,8.20
2019-04-04T12:12:37.396Z,8.00
2019-04-04T12:15:08.508Z,7.90
2019-04-04T12:17:38.701Z,7.80
2019-04-04T12:20:08.984Z,7.80
2019-04-04T12:22:39.221Z,7.70
2019-04-04T12:25:09.465Z,7.60
2019-04-04T12:27:39.637Z,7.60
2019-04-04T12:30:10.581Z,7.50
2019-04-04T12:32:40.786Z,7.50
2019-04-04T12:35:11.032Z,7.50
2019-04-04T12:37:41.210Z,7.60
2019-04-04T12:40:20.417Z,7.60
2019-04-04T12:42:46.059Z,7.60
2019-04-04T12:45:16.477Z,7.60
2019-04-04T12:47:46.689Z,7.70
2019-04-04T12:50:17.098Z,7.70
2019-04-04T12:52:47.321Z,7.70
2019-04-04T12:55:17.445Z,7.80
2019-04-04T12:57:47.600Z,7.80
2019-04-04T13:00:17.934Z,7.90
2019-04-04T13:02:48.122Z,8.00
2019-04-04T13:05:18.338Z,8.00
2019-04-04T13:07:48.517Z,8.00
2019-04-04T13:10:18.856Z,8.00
2019-04-04T13:12:49.103Z,8.00
2019-04-04T13:15:19.351Z,8.10
2019-04-04T13:17:49.527Z,8.00
2019-04-04T13:20:19.775Z,8.10
2019-04-04T13:22:49.924Z,8.20
2019-04-04T13:25:21.040Z,8.30
2019-04-04T13:27:51.235Z,8.20
2019-04-04T13:30:21.390Z,8.20
2019-04-04T13:32:51.571Z,8.20
2019-04-04T13:35:21.754Z,8.20
2019-04-04T13:37:51.968Z,8.30
2019-04-04T13:40:22.127Z,8.20
2019-04-04T13:42:53.115Z,8.20
2019-04-04T13:45:25.453Z,8.30
2019-04-04T13:47:55.585Z,8.40
2019-04-04T13:50:25.742Z,8.40
2019-04-04T13:52:55.907Z,8.30
2019-04-04T13:55:27.321Z,8.40
2019-04-04T13:57:58.064Z,8.40
2019-04-04T14:00:28.209Z,8.30
2019-04-04T14:02:58.445Z,8.20
2019-04-04T14:05:31.601Z,8.40
2019-04-04T14:08:01.786Z,8.40
2019-04-04T14:10:32.920Z,8.50
2019-04-04T14:13:03.120Z,8.70
2019-04-04T14:15:33.257Z,8.70
2019-04-04T14:18:07.698Z,8.70
2019-04-04T14:20:36.843Z,8.70
2019-04-04T14:23:06.994Z,8.70
2019-04-04T14:25:37.140Z,8.70
2019-04-04T14:28:07.375Z,8.60
2019-04-04T14:30:37.555Z,8.60
2019-04-04T14:33:07.726Z,8.50
2019-04-04T14:35:37.885Z,8.40
2019-04-04T14:38:08.036Z,8.40
2019-04-04T14:40:38.260Z,8.50
2019-04-04T14:43:08.416Z,8.50
2019-04-04T14:45:38.745Z,8.50
2019-04-04T14:48:10.969Z,8.50
2019-04-04T14:50:40.776Z,8.50
2019-04-04T14:53:10.931Z,8.60
2019-04-04T14:55:41.120Z,8.50
2019-04-04T14:58:11.373Z,8.50
2019-04-04T15:00:41.527Z,8.50
2019-04-04T15:03:11.680Z,8.50
2019-04-04T15:05:42.787Z,8.50
2019-04-04T15:08:12.964Z,8.40
2019-04-04T15:10:43.104Z,8.20
2019-04-04T15:13:13.276Z,8.10
2019-04-04T15:16:14.569Z,7.80
2019-04-04T15:18:44.912Z,7.90
2019-04-04T15:21:15.227Z,7.80
2019-04-04T15:23:45.416Z,7.80
2019-04-04T15:26:15.603Z,7.80
2019-04-04T15:28:46.840Z,7.80
2019-04-04T15:31:17.006Z,7.90
2019-04-04T15:33:50.149Z,8.00
2019-04-04T15:36:19.065Z,7.90
2019-04-04T15:38:49.311Z,8.00
2019-04-04T15:41:19.470Z,8.10
2019-04-04T15:43:49.649Z,8.20
2019-04-04T15:46:19.790Z,8.30
2019-04-04T15:48:49.975Z,8.10
2019-04-04T15:51:20.153Z,8.00
2019-04-04T15:53:50.431Z,8.00
2019-04-04T15:56:20.660Z,8.00
2019-04-04T15:58:50.830Z,8.00
2019-04-04T16:01:21.001Z,7.90
2019-04-04T16:03:52.157Z,8.00
2019-04-04T16:06:22.402Z,8.10
2019-04-04T16:08:52.616Z,8.00
2019-04-04T16:11:22.764Z,7.90
2019-04-04T16:13:52.930Z,8.00
2019-04-04T16:16:23.120Z,8.00
2019-04-04T16:18:53.370Z,8.00
2019-04-04T16:21:23.534Z,7.80
2019-04-04T16:23:53.693Z,7.70
2019-04-04T16:26:23.864Z,7.80
2019-04-04T16:28:54.048Z,7.80
2019-04-04T16:31:24.241Z,7.70
2019-04-04T16:33:54.421Z,7.70
2019-04-04T16:36:24.591Z,7.70
2019-04-04T16:38:54.759Z,7.70
2019-04-04T16:41:24.919Z,7.80
2019-04-04T16:43:55.183Z,7.70
2019-04-04T16:46:25.347Z,7.70
2019-04-04T16:48:55.508Z,7.70
2019-04-04T16:51:25.650Z,7.60
2019-04-04T16:53:55.817Z,7.50
2019-04-04T16:56:25.972Z,7.50
2019-04-04T16:58:56.132Z,7.50
2019-04-04T17:01:26.328Z,7.50
2019-04-04T17:04:01.950Z,7.40
2019-04-04T17:06:28.448Z,7.50
2019-04-04T17:08:58.640Z,7.50
2019-04-04T17:11:28.830Z,7.60
2019-04-04T17:14:00.199Z,7.60
2019-04-04T17:16:30.361Z,7.50
2019-04-04T17:19:00.571Z,7.50
2019-04-04T17:21:30.740Z,7.50
2019-04-04T17:24:00.904Z,7.50
2019-04-04T17:26:31.110Z,7.40
2019-04-04T17:29:01.328Z,7.40
2019-04-04T17:31:31.762Z,7.30
2019-04-04T17:34:01.979Z,7.30
2019-04-04T17:36:32.871Z,7.20
2019-04-04T17:39:04.473Z,7.20
2019-04-04T17:41:34.952Z,7.00
2019-04-04T17:44:05.867Z,7.00
2019-04-04T17:46:36.047Z,7.00
2019-04-04T17:49:06.585Z,6.90
2019-04-04T17:51:36.936Z,6.90
2019-04-04T17:54:07.203Z,6.80
2019-04-04T17:56:37.591Z,6.70
2019-04-04T17:59:07.818Z,6.80
2019-04-04T18:01:37.999Z,6.70
2019-04-04T18:04:09.236Z,6.60
2019-04-04T18:06:40.775Z,6.60
2019-04-04T18:09:11.201Z,6.50
2019-04-04T18:11:41.423Z,6.40
2019-04-04T18:14:11.733Z,6.40
2019-04-04T18:16:41.914Z,6.40
2019-04-04T18:19:12.066Z,6.30
2019-04-04T18:21:42.289Z,6.30
2019-04-04T18:24:12.499Z,6.20
2019-04-04T18:26:42.691Z,6.20
2019-04-04T18:29:12.873Z,6.10
2019-04-04T18:31:43.032Z,6.10
2019-04-04T18:34:13.378Z,6.10
2019-04-04T18:36:45.362Z,6.00
2019-04-04T18:39:15.604Z,6.00
2019-04-04T18:41:45.817Z,5.90
2019-04-04T18:44:16.026Z,6.00
2019-04-04T18:46:46.215Z,6.00
2019-04-04T18:49:16.448Z,6.00
2019-04-04T18:51:46.660Z,5.90
2019-04-04T18:54:16.959Z,5.80
2019-04-04T18:56:47.164Z,5.80
2019-04-04T18:59:17.400Z,5.70
2019-04-04T19:01:47.646Z,5.60
2019-04-04T19:04:17.816Z,5.50
2019-04-04T19:06:48.025Z,5.50
2019-04-04T19:09:18.214Z,5.40
2019-04-04T19:11:48.428Z,5.40
2019-04-04T19:14:18.660Z,5.50
2019-04-04T19:16:48.828Z,5.60
2019-04-04T19:19:18.980Z,5.50
2019-04-04T19:21:49.154Z,5.50
2019-04-04T19:24:19.319Z,5.40
2019-04-04T19:26:49.567Z,5.40
2019-04-04T19:29:19.740Z,5.30
2019-04-04T19:31:49.936Z,5.30
2019-04-04T19:34:20.135Z,5.30
2019-04-04T19:36:50.361Z,5.20
2019-04-04T19:39:20.601Z,5.10
2019-04-04T19:41:50.822Z,5.00
2019-04-04T19:44:21.054Z,4.90
2019-04-04T19:46:51.295Z,4.90
2019-04-04T19:49:21.483Z,4.80
2019-04-04T19:51:51.747Z,4.70
2019-04-04T19:54:21.997Z,4.70
2019-04-04T19:56:52.353Z,4.80
2019-04-04T19:59:24.571Z,4.80
2019-04-04T20:01:54.866Z,4.80
2019-04-04T20:04:25.079Z,4.90
2019-04-04T20:06:56.306Z,4.80
2019-04-04T20:09:26.573Z,4.70
2019-04-04T20:11:56.745Z,4.70
2019-04-04T20:14:29.016Z,4.70
2019-04-04T20:16:58.447Z,4.70
2019-04-04T20:19:31.230Z,4.60
2019-04-04T20:22:00.560Z,4.60
2019-04-04T20:24:31.032Z,4.60
2019-04-04T20:27:01.267Z,4.50
2019-04-04T20:29:33.173Z,4.50
2019-04-04T20:32:03.348Z,4.50
2019-04-04T20:34:35.551Z,4.60
2019-04-04T20:37:07.109Z,4.70
2019-04-04T20:39:37.329Z,4.70
2019-04-04T20:42:07.540Z,4.70
2019-04-04T20:44:38.659Z,4.60
2019-04-04T20:47:09.845Z,4.60
2019-04-04T20:49:39.996Z,4.60
2019-04-04T20:52:10.175Z,4.60
2019-04-04T20:54:40.474Z,4.60
2019-04-04T20:57:10.739Z,4.60
2019-04-04T20:59:40.914Z,4.60
2019-04-04T21:02:11.171Z,4.60
2019-04-04T21:04:41.327Z,4.60
2019-04-04T21:07:11.503Z,4.70
2019-04-04T21:09:41.687Z,4.70
2019-04-04T21:12:11.888Z,4.80
2019-04-04T21:14:42.085Z,4.80
2019-04-04T21:17:12.304Z,4.80
2019-04-04T21:19:42.470Z,4.70
2019-04-04T21:22:12.705Z,4.70
2019-04-04T21:24:42.897Z,4.70
2019-04-04T21:27:13.224Z,4.70
2019-04-04T21:29:43.423Z,4.70
2019-04-04T21:32:13.702Z,4.60
2019-04-04T21:34:43.876Z,4.60
2019-04-04T21:37:14.087Z,4.60
2019-04-04T21:39:44.261Z,4.60
2019-04-04T21:42:14.443Z,4.60
2019-04-04T21:44:44.617Z,4.50
2019-04-04T21:47:14.937Z,4.60
2019-04-04T21:49:45.104Z,4.60
2019-04-04T21:52:15.272Z,4.60
2019-04-04T21:54:45.443Z,4.60
2019-04-04T21:57:15.703Z,4.70
2019-04-04T21:59:45.864Z,4.70
2019-04-04T22:02:16.329Z,4.70
2019-04-04T22:04:46.467Z,4.70
2019-04-04T22:07:16.672Z,4.70
2019-04-04T22:09:46.870Z,4.60
2019-04-04T22:12:17.044Z,4.50
2019-04-04T22:14:47.196Z,4.60
2019-04-04T22:17:17.389Z,4.70
2019-04-04T22:19:47.603Z,4.70
2019-04-04T22:22:17.788Z,4.70
2019-04-04T22:24:47.931Z,4.60
2019-04-04T22:27:18.160Z,4.70
2019-04-04T22:29:48.319Z,4.70
2019-04-04T22:32:18.483Z,4.70
2019-04-04T22:34:48.684Z,4.70
2019-04-04T22:37:18.838Z,4.80
2019-04-04T22:39:49.068Z,4.80
2019-04-04T22:42:19.229Z,4.80
2019-04-04T22:44:49.396Z,4.80
2019-04-04T22:47:19.540Z,4.80
2019-04-04T22:49:49.719Z,4.80
2019-04-04T22:52:19.876Z,4.80
2019-04-04T22:54:50.020Z,4.90
2019-04-04T22:57:20.189Z,4.80
2019-04-04T22:59:50.323Z,4.80
2019-04-04T23:02:20.479Z,4.70
2019-04-04T23:04:50.665Z,4.60
2019-04-04T23:07:20.931Z,4.60
2019-04-04T23:09:51.102Z,4.60
2019-04-04T23:12:21.248Z,4.60
2019-04-04T23:14:51.437Z,4.60
2019-04-04T23:17:21.618Z,4.50
2019-04-04T23:19:51.768Z,4.50
2019-04-04T23:22:21.975Z,4.50
2019-04-04T23:24:52.189Z,4.60
2019-04-04T23:27:22.344Z,4.60
2019-04-04T23:29:52.524Z,4.70
2019-04-04T23:32:22.715Z,4.60
2019-04-04T23:34:52.886Z,4.60
2019-04-04T23:37:23.105Z,4.60
2019-04-04T23:39:53.272Z,4.50
2019-04-04T23:42:30.336Z,4.50
2019-04-04T23:45:01.537Z,4.40
2019-04-04T23:47:42.132Z,4.50
2019-04-04T23:50:04.024Z,4.50
2019-04-04T23:52:34.184Z,4.60
2019-04-04T23:55:04.672Z,4.60
2019-04-04T23:57:34.804Z,4.60
